Time;durP1;ratioP1;P1;durP2;ratioP2;P2;SDS_P1;SDS_P2;PMS_P1;PMS_P2;Temp;Humidity;BMP_temperature;BMP_pressure;BME280_temperature;BME280_humidity;BME280_pressure;Samples;Min_cycle;Max_cycle;Signal;HPM_P1;HPM_P2
2021/11/15 00:00:08;;;;;;;29.10;21.93;;;10.90;99.90;;;;;;5136494;27;37501;-79
2021/11/15 00:02:34;;;;;;;29.27;20.23;;;10.80;99.90;;;;;;5130169;27;47083;-79
2021/11/15 00:05:00;;;;;;;27.20;21.50;;;10.80;99.90;;;;;;5125079;27;39054;-78
2021/11/15 00:07:27;;;;;;;28.77;21.37;;;10.80;99.90;;;;;;5141313;27;20067;-78
2021/11/15 00:09:53;;;;;;;29.90;21.33;;;10.80;99.90;;;;;;5122145;27;36110;-80
2021/11/15 00:12:19;;;;;;;29.83;21.67;;;10.80;99.90;;;;;;5134791;27;40017;-79
2021/11/15 00:14:46;;;;;;;31.00;21.40;;;10.80;99.90;;;;;;5121679;27;38875;-79
2021/11/15 00:17:12;;;;;;;29.37;21.60;;;10.80;99.90;;;;;;5121606;27;38466;-78
2021/11/15 00:19:38;;;;;;;33.07;21.13;;;10.80;99.90;;;;;;5140610;27;37618;-78
2021/11/15 00:22:05;;;;;;;30.97;22.20;;;10.80;99.90;;;;;;5117648;27;39540;-78
2021/11/15 00:24:31;;;;;;;29.57;21.97;;;10.80;99.90;;;;;;5137023;27;39174;-78
2021/11/15 00:26:57;;;;;;;30.47;22.03;;;10.80;99.90;;;;;;5141380;27;37865;-78
2021/11/15 00:29:23;;;;;;;32.43;21.60;;;10.80;99.90;;;;;;5140892;27;38028;-79
2021/11/15 00:31:49;;;;;;;31.23;21.17;;;10.80;99.90;;;;;;5118752;27;37482;-78
2021/11/15 00:34:16;;;;;;;30.33;22.47;;;10.80;99.90;;;;;;5135536;27;38298;-78
2021/11/15 00:36:42;;;;;;;32.53;22.60;;;10.80;99.90;;;;;;5152278;27;39277;-78
2021/11/15 00:39:08;;;;;;;28.30;20.17;;;10.80;99.90;;;;;;5127314;27;36557;-78
2021/11/15 00:41:34;;;;;;;31.77;21.53;;;10.70;99.90;;;;;;5150486;27;38844;-79
2021/11/15 00:44:00;;;;;;;31.00;21.70;;;10.70;99.90;;;;;;5137448;27;38505;-78
2021/11/15 00:46:26;;;;;;;31.97;21.87;;;10.70;99.90;;;;;;5161967;27;38668;-78
2021/11/15 00:48:55;;;;;;;30.40;21.33;;;10.80;99.90;;;;;;5163011;27;35760;-78
2021/11/15 00:51:23;;;;;;;29.43;20.90;;;10.70;99.90;;;;;;5161445;27;38819;-76
2021/11/15 00:53:50;;;;;;;30.13;21.10;;;10.70;99.90;;;;;;5158399;27;39699;-78
2021/11/15 00:56:16;;;;;;;29.40;21.13;;;10.70;99.90;;;;;;5139390;27;37704;-79
2021/11/15 00:58:43;;;;;;;29.23;20.47;;;10.70;99.90;;;;;;5160422;27;37404;-78
2021/11/15 01:01:09;;;;;;;29.23;21.30;;;10.70;99.90;;;;;;5155261;27;39789;-77
2021/11/15 01:03:35;;;;;;;28.47;20.30;;;10.70;99.90;;;;;;5159462;27;38119;-76
2021/11/15 01:06:02;;;;;;;28.53;20.63;;;10.60;99.90;;;;;;5144537;27;35015;-78
2021/11/15 01:08:28;;;;;;;32.20;21.10;;;10.60;99.90;;;;;;5138934;27;36584;-77
2021/11/15 01:10:55;;;;;;;31.10;20.67;;;10.60;99.90;;;;;;5157829;27;39307;-77
2021/11/15 01:13:22;;;;;;;31.80;22.13;;;10.60;99.90;;;;;;5137400;27;37852;-77
2021/11/15 01:15:49;;;;;;;30.73;21.20;;;10.60;99.90;;;;;;5136718;27;37820;-78
2021/11/15 01:18:15;;;;;;;29.80;20.57;;;10.60;99.90;;;;;;5150858;27;37960;-79
2021/11/15 01:20:42;;;;;;;33.13;21.20;;;10.60;99.90;;;;;;5136041;27;40131;-79
2021/11/15 01:23:09;;;;;;;32.40;21.97;;;10.60;99.90;;;;;;5142101;27;38418;-79
2021/11/15 01:25:37;;;;;;;28.97;20.27;;;10.60;99.90;;;;;;5132610;27;37048;-78
2021/11/15 01:28:04;;;;;;;31.07;19.33;;;10.60;99.90;;;;;;5133700;27;36074;-79
2021/11/15 01:30:31;;;;;;;28.10;20.10;;;10.60;99.90;;;;;;5140458;27;40852;-78
2021/11/15 01:32:57;;;;;;;30.70;20.90;;;10.50;99.90;;;;;;5152158;27;37935;-78
2021/11/15 01:35:26;;;;;;;30.73;21.37;;;10.60;99.90;;;;;;5142798;27;38812;-78
2021/11/15 01:37:53;;;;;;;28.97;20.53;;;10.60;99.90;;;;;;5133521;27;39318;-78
2021/11/15 01:40:22;;;;;;;28.07;19.60;;;10.50;99.90;;;;;;5145333;27;39497;-77
2021/11/15 01:42:50;;;;;;;34.30;21.47;;;10.50;99.90;;;;;;5141803;27;38104;-78
2021/11/15 01:45:23;;;;;;;30.23;21.67;;;10.50;99.90;;;;;;5154237;27;38012;-76
2021/11/15 01:47:54;;;;;;;29.40;19.93;;;10.50;99.90;;;;;;5157473;27;37729;-79
2021/11/15 01:50:21;;;;;;;30.53;21.53;;;10.40;99.90;;;;;;5141966;27;41229;-77
2021/11/15 01:52:48;;;;;;;27.17;19.93;;;10.50;99.90;;;;;;5144100;27;37358;-79
2021/11/15 01:55:16;;;;;;;30.07;19.73;;;10.40;99.90;;;;;;5136394;27;39014;-78
2021/11/15 01:57:43;;;;;;;26.53;19.40;;;10.50;99.90;;;;;;5167840;27;38531;-79
2021/11/15 02:00:14;;;;;;;26.20;18.73;;;10.50;99.90;;;;;;5157004;27;40507;-78
2021/11/15 02:02:41;;;;;;;24.50;17.80;;;10.40;99.90;;;;;;5146989;27;38922;-78
2021/11/15 02:05:08;;;;;;;27.50;18.90;;;10.50;99.90;;;;;;5133456;27;38606;-78
2021/11/15 02:07:34;;;;;;;24.07;17.50;;;10.40;99.90;;;;;;5155747;27;37887;-78
2021/11/15 02:10:01;;;;;;;24.57;17.57;;;10.40;99.90;;;;;;5154354;27;38730;-78
2021/11/15 02:12:27;;;;;;;27.60;18.50;;;10.30;99.90;;;;;;5143230;27;47222;-79
2021/11/15 02:14:53;;;;;;;24.53;17.43;;;10.30;99.90;;;;;;5137934;27;38787;-79
2021/11/15 02:17:20;;;;;;;26.17;17.77;;;10.30;99.90;;;;;;5140509;27;39189;-79
2021/11/15 02:19:47;;;;;;;28.17;18.10;;;10.30;99.90;;;;;;5139594;27;41506;-79
2021/11/15 02:22:13;;;;;;;27.47;18.27;;;10.30;99.90;;;;;;5151201;27;38246;-79
2021/11/15 02:24:39;;;;;;;23.70;16.97;;;10.40;99.90;;;;;;5162313;27;38059;-78
2021/11/15 02:27:06;;;;;;;23.63;17.30;;;10.30;99.90;;;;;;5158795;27;37551;-77
2021/11/15 02:29:32;;;;;;;25.87;17.40;;;10.40;99.90;;;;;;5166035;27;39237;-79
2021/11/15 02:31:58;;;;;;;21.40;16.07;;;10.30;99.90;;;;;;5158127;27;39331;-79
2021/11/15 02:34:24;;;;;;;21.90;15.80;;;10.30;99.90;;;;;;5141580;27;39914;-78
2021/11/15 02:36:53;;;;;;;23.40;16.47;;;10.30;99.90;;;;;;5133440;27;37545;-78
2021/11/15 02:39:19;;;;;;;22.07;15.80;;;10.30;99.90;;;;;;5140108;27;39411;-78
2021/11/15 02:41:46;;;;;;;20.37;15.73;;;10.30;99.90;;;;;;5138526;27;38788;-78
2021/11/15 02:44:12;;;;;;;21.27;15.17;;;10.20;99.90;;;;;;5132739;27;36893;-78
2021/11/15 02:46:38;;;;;;;21.83;15.27;;;10.20;99.90;;;;;;5134997;27;38245;-79
2021/11/15 02:49:04;;;;;;;22.10;16.33;;;10.20;99.90;;;;;;5131991;27;37763;-78
2021/11/15 02:51:31;;;;;;;19.50;15.27;;;10.20;99.90;;;;;;5140564;27;38286;-77
2021/11/15 02:53:57;;;;;;;22.63;17.10;;;10.20;99.90;;;;;;5136573;27;37459;-77
2021/11/15 02:56:23;;;;;;;21.80;16.13;;;10.30;99.90;;;;;;5138433;27;37411;-79
2021/11/15 02:58:49;;;;;;;24.40;16.43;;;10.20;99.90;;;;;;5127977;27;38294;-78
2021/11/15 03:01:18;;;;;;;24.73;16.20;;;10.20;99.90;;;;;;5115967;27;37120;-79
2021/11/15 03:03:44;;;;;;;22.67;15.87;;;10.20;99.90;;;;;;5122935;27;37305;-78
2021/11/15 03:06:11;;;;;;;20.20;15.73;;;10.20;99.90;;;;;;5127793;27;37894;-80
2021/11/15 03:08:38;;;;;;;25.17;16.93;;;10.30;99.90;;;;;;5124336;27;37471;-79
2021/11/15 03:11:06;;;;;;;20.53;15.03;;;10.20;99.90;;;;;;5122535;27;38204;-79
2021/11/15 03:13:47;;;;;;;24.13;16.07;;;10.20;99.90;;;;;;5164183;27;38340;-79
2021/11/15 03:16:13;;;;;;;21.20;16.23;;;10.10;99.90;;;;;;5130798;27;38421;-78
2021/11/15 03:18:41;;;;;;;20.60;15.67;;;10.10;99.90;;;;;;5129535;27;39289;-79
2021/11/15 03:21:14;;;;;;;20.97;15.37;;;10.10;99.90;;;;;;5130263;27;38381;-78
2021/11/15 03:23:43;;;;;;;22.90;16.17;;;10.10;99.90;;;;;;5142090;27;36416;-79
2021/11/15 03:26:10;;;;;;;21.93;15.53;;;10.10;99.90;;;;;;5133866;27;36844;-79
2021/11/15 03:28:40;;;;;;;20.20;14.87;;;10.10;99.90;;;;;;5132972;27;37564;-79
2021/11/15 03:31:16;;;;;;;22.03;14.90;;;10.10;99.90;;;;;;5136691;27;37662;-79
2021/11/15 03:33:42;;;;;;;19.67;15.57;;;10.10;99.90;;;;;;5141112;27;38392;-79
2021/11/15 03:36:09;;;;;;;24.03;17.20;;;10.10;99.90;;;;;;5132301;27;38126;-80
2021/11/15 03:38:36;;;;;;;22.90;15.93;;;10.10;99.90;;;;;;5132186;27;37691;-79
2021/11/15 03:41:04;;;;;;;22.07;15.70;;;10.10;99.90;;;;;;5135470;27;37313;-77
2021/11/15 03:43:30;;;;;;;22.63;16.37;;;10.10;99.90;;;;;;5136836;27;37746;-77
2021/11/15 03:45:57;;;;;;;20.80;16.10;;;10.10;99.90;;;;;;5137164;27;38446;-79
2021/11/15 03:48:24;;;;;;;20.03;14.27;;;10.10;99.90;;;;;;5131997;27;39199;-76
2021/11/15 03:50:55;;;;;;;19.97;14.67;;;10.00;99.90;;;;;;5130988;27;38353;-79
2021/11/15 03:53:30;;;;;;;19.97;14.53;;;10.10;99.90;;;;;;5145878;27;38332;-78
2021/11/15 03:55:57;;;;;;;21.13;14.73;;;10.00;99.90;;;;;;5142486;27;37484;-79
2021/11/15 03:58:23;;;;;;;20.70;14.70;;;10.00;99.90;;;;;;5154120;27;39609;-80
2021/11/15 04:00:50;;;;;;;20.53;14.50;;;10.00;99.90;;;;;;5160521;27;38814;-79
2021/11/15 04:03:38;;;;;;;20.27;14.50;;;10.00;99.90;;;;;;5127151;27;39676;-79
2021/11/15 04:06:27;;;;;;;21.60;14.70;;;10.00;99.90;;;;;;5143635;27;38129;-79
2021/11/15 04:08:55;;;;;;;22.97;15.40;;;9.90;99.90;;;;;;5136282;27;39827;-78
2021/11/15 04:11:24;;;;;;;21.10;15.03;;;9.90;99.90;;;;;;5138663;27;37362;-78
2021/11/15 04:13:55;;;;;;;21.23;15.17;;;9.90;99.90;;;;;;5140477;27;36441;-79
2021/11/15 04:16:21;;;;;;;19.60;14.80;;;9.90;99.90;;;;;;5129349;27;37879;-78
2021/11/15 04:18:55;;;;;;;20.60;15.53;;;9.90;99.90;;;;;;5142341;27;38604;-80
2021/11/15 04:21:22;;;;;;;22.67;15.53;;;9.90;99.90;;;;;;5121893;27;40353;-79
2021/11/15 04:23:48;;;;;;;21.87;15.93;;;9.90;99.90;;;;;;5127714;27;40059;-76
2021/11/15 04:26:14;;;;;;;21.53;15.23;;;9.90;99.90;;;;;;5142178;27;38432;-77
2021/11/15 04:28:40;;;;;;;22.23;16.07;;;9.90;99.90;;;;;;5118057;27;40417;-77
2021/11/15 04:31:06;;;;;;;21.70;15.83;;;9.90;99.90;;;;;;5119840;27;39227;-78
2021/11/15 04:33:32;;;;;;;24.23;16.13;;;9.90;99.90;;;;;;5139030;27;38005;-77
2021/11/15 04:35:59;;;;;;;24.83;16.43;;;9.90;99.90;;;;;;5140189;27;37763;-79
2021/11/15 04:38:25;;;;;;;23.43;15.60;;;9.90;99.90;;;;;;5121338;27;38643;-78
2021/11/15 04:40:51;;;;;;;26.13;16.47;;;9.90;99.90;;;;;;5146641;27;38518;-78
2021/11/15 04:43:17;;;;;;;24.60;16.23;;;9.80;99.90;;;;;;5161776;27;38877;-77
2021/11/15 04:45:43;;;;;;;23.87;16.40;;;9.90;99.90;;;;;;5148091;27;37694;-78
2021/11/15 04:48:09;;;;;;;21.93;15.57;;;9.90;99.90;;;;;;5139240;27;38266;-78
2021/11/15 04:50:35;;;;;;;23.50;16.33;;;9.90;99.90;;;;;;5138732;27;38595;-77
2021/11/15 04:53:02;;;;;;;24.90;16.70;;;9.90;99.90;;;;;;5141931;27;38189;-77
2021/11/15 04:55:28;;;;;;;25.43;17.17;;;9.80;99.90;;;;;;5128537;27;36537;-78
2021/11/15 04:57:56;;;;;;;26.63;16.77;;;9.90;99.90;;;;;;5127377;27;40677;-77
2021/11/15 05:00:28;;;;;;;23.07;16.37;;;9.90;99.90;;;;;;5127489;27;39002;-77
2021/11/15 05:02:54;;;;;;;23.70;17.50;;;9.80;99.90;;;;;;5129706;27;39816;-77
2021/11/15 05:05:21;;;;;;;25.10;16.70;;;9.80;99.90;;;;;;5130769;27;39231;-76
2021/11/15 05:07:51;;;;;;;25.43;17.37;;;9.80;99.90;;;;;;5138817;27;39884;-78
2021/11/15 05:10:17;;;;;;;26.90;17.70;;;9.90;99.90;;;;;;5125007;27;39963;-77
2021/11/15 05:12:44;;;;;;;27.80;18.33;;;9.90;99.90;;;;;;5135359;27;39623;-77
2021/11/15 05:15:13;;;;;;;24.57;18.27;;;9.80;99.90;;;;;;5130101;27;38959;-76
2021/11/15 05:17:40;;;;;;;25.70;18.07;;;9.80;99.90;;;;;;5133807;27;40510;-77
2021/11/15 05:20:08;;;;;;;27.00;17.73;;;9.80;99.90;;;;;;5143376;27;38143;-77
2021/11/15 05:22:35;;;;;;;27.97;18.23;;;9.80;99.90;;;;;;5134128;27;39797;-77
2021/11/15 05:25:03;;;;;;;24.67;18.17;;;9.80;99.90;;;;;;5136627;27;37405;-77
2021/11/15 05:27:29;;;;;;;26.57;18.30;;;9.80;99.90;;;;;;5133648;27;47449;-78
2021/11/15 05:29:56;;;;;;;25.47;17.40;;;9.80;99.90;;;;;;5135989;27;39006;-78
2021/11/15 05:32:22;;;;;;;24.90;16.60;;;9.80;99.90;;;;;;5145891;27;38258;-77
2021/11/15 05:34:48;;;;;;;27.23;18.47;;;9.80;99.90;;;;;;5143284;27;37138;-77
2021/11/15 05:37:14;;;;;;;25.40;17.80;;;9.80;99.90;;;;;;5138105;27;39283;-78
2021/11/15 05:39:42;;;;;;;27.70;16.63;;;9.80;99.90;;;;;;5139324;27;38466;-78
2021/11/15 05:42:08;;;;;;;24.67;18.33;;;9.70;99.90;;;;;;5132894;27;38946;-77
2021/11/15 05:44:34;;;;;;;25.67;18.13;;;9.70;99.90;;;;;;5138797;27;37316;-78
2021/11/15 05:47:00;;;;;;;24.03;17.57;;;9.70;99.90;;;;;;5131398;27;39589;-79
2021/11/15 05:49:27;;;;;;;24.00;16.90;;;9.60;99.90;;;;;;5138553;27;38194;-78
2021/11/15 05:51:53;;;;;;;26.60;17.63;;;9.60;99.90;;;;;;5134903;27;38206;-78
2021/11/15 05:54:19;;;;;;;27.97;18.07;;;9.70;99.90;;;;;;5138566;27;37599;-78
2021/11/15 05:56:46;;;;;;;26.93;16.77;;;9.70;99.90;;;;;;5128858;27;37841;-78
2021/11/15 05:59:14;;;;;;;25.70;16.87;;;9.70;99.90;;;;;;5132971;27;39361;-78
2021/11/15 06:01:40;;;;;;;24.03;16.80;;;9.70;99.90;;;;;;5133247;27;38307;-78
2021/11/15 06:04:07;;;;;;;28.70;17.37;;;9.60;99.90;;;;;;5137484;27;38121;-78
2021/11/15 06:06:33;;;;;;;25.03;16.37;;;9.60;99.90;;;;;;5128097;27;40557;-78
2021/11/15 06:08:59;;;;;;;27.53;17.60;;;9.60;99.90;;;;;;5135879;27;39406;-77
2021/11/15 06:11:25;;;;;;;24.37;16.17;;;9.60;99.90;;;;;;5141673;27;37688;-78
2021/11/15 06:13:51;;;;;;;26.13;16.10;;;9.60;99.90;;;;;;5127900;27;38159;-77
2021/11/15 06:16:17;;;;;;;28.97;16.27;;;9.60;99.90;;;;;;5134927;27;38357;-77
2021/11/15 06:18:44;;;;;;;25.43;16.93;;;9.50;99.90;;;;;;5134934;27;39418;-79
2021/11/15 06:21:10;;;;;;;24.40;16.40;;;9.50;99.90;;;;;;5144349;27;38991;-78
2021/11/15 06:23:36;;;;;;;25.17;15.83;;;9.50;99.90;;;;;;5125568;27;38868;-78
2021/11/15 06:26:03;;;;;;;24.23;15.57;;;9.50;99.90;;;;;;5133776;27;38677;-78
2021/11/15 06:28:29;;;;;;;25.07;15.37;;;9.50;99.90;;;;;;5126977;27;39707;-78
2021/11/15 06:30:55;;;;;;;26.17;16.63;;;9.50;99.90;;;;;;5128067;27;38883;-78
2021/11/15 06:33:21;;;;;;;22.40;14.43;;;9.50;99.90;;;;;;5130713;27;36677;-77
2021/11/15 06:35:47;;;;;;;22.23;15.33;;;9.50;99.90;;;;;;5148515;27;39597;-78
2021/11/15 06:38:14;;;;;;;20.47;14.33;;;9.50;99.90;;;;;;5144847;27;37185;-77
2021/11/15 06:40:40;;;;;;;23.97;15.33;;;9.50;99.90;;;;;;5136509;27;36956;-77
2021/11/15 06:43:07;;;;;;;23.23;15.83;;;9.50;99.90;;;;;;5130671;27;36346;-78
2021/11/15 06:45:33;;;;;;;22.30;15.33;;;9.50;99.90;;;;;;5152267;27;39116;-78
2021/11/15 06:48:00;;;;;;;25.60;16.87;;;9.50;99.90;;;;;;5131745;27;37834;-77
2021/11/15 06:50:26;;;;;;;25.07;15.30;;;9.50;99.90;;;;;;5132010;27;47328;-78
2021/11/15 06:52:53;;;;;;;23.57;15.73;;;9.50;99.90;;;;;;5160966;27;36949;-78
2021/11/15 06:55:22;;;;;;;24.30;15.43;;;9.40;99.90;;;;;;5150425;27;38790;-78
2021/11/15 06:57:49;;;;;;;23.43;15.87;;;9.40;99.90;;;;;;5128307;27;38629;-78
2021/11/15 07:00:22;;;;;;;21.93;15.27;;;9.50;99.90;;;;;;5139542;27;39025;-78
2021/11/15 07:02:53;;;;;;;21.77;15.63;;;9.40;99.90;;;;;;5135363;27;37427;-78
2021/11/15 07:05:21;;;;;;;22.17;15.60;;;9.50;99.90;;;;;;5116965;27;37742;-78
2021/11/15 07:07:51;;;;;;;23.07;15.50;;;9.50;99.90;;;;;;5126889;27;37838;-79
2021/11/15 07:10:18;;;;;;;25.20;16.27;;;9.50;99.90;;;;;;5131506;27;37883;-77
2021/11/15 07:12:46;;;;;;;24.87;17.67;;;9.40;99.90;;;;;;5134709;27;37282;-79
2021/11/15 07:15:14;;;;;;;24.80;17.20;;;9.40;99.90;;;;;;5115167;27;39850;-79
2021/11/15 07:17:40;;;;;;;22.43;16.73;;;9.40;99.90;;;;;;5136835;27;38485;-78
2021/11/15 07:20:07;;;;;;;24.20;16.23;;;9.40;99.90;;;;;;5143231;27;37969;-78
2021/11/15 07:22:34;;;;;;;24.77;16.67;;;9.40;99.90;;;;;;5149695;27;36811;-77
2021/11/15 07:25:00;;;;;;;23.30;16.40;;;9.50;99.90;;;;;;5140222;27;38860;-77
2021/11/15 07:27:27;;;;;;;24.93;16.13;;;9.50;99.90;;;;;;5157420;27;38391;-78
2021/11/15 07:29:53;;;;;;;24.33;17.77;;;9.40;99.90;;;;;;5157334;27;37602;-77
2021/11/15 07:32:19;;;;;;;23.37;16.57;;;9.40;99.90;;;;;;5154127;27;37113;-77
2021/11/15 07:34:46;;;;;;;25.10;17.93;;;9.40;99.90;;;;;;5155421;27;38760;-77
2021/11/15 07:37:12;;;;;;;23.93;17.93;;;9.40;99.90;;;;;;5148808;27;37624;-77
2021/11/15 07:39:42;;;;;;;24.87;17.13;;;9.40;99.90;;;;;;5155125;27;38025;-79
2021/11/15 07:42:13;;;;;;;24.40;16.90;;;9.40;99.90;;;;;;5150892;27;38093;-78
2021/11/15 07:44:40;;;;;;;24.20;16.60;;;9.40;99.90;;;;;;5137087;27;38036;-78
2021/11/15 07:47:07;;;;;;;27.40;18.17;;;9.40;99.90;;;;;;5152761;27;38878;-77
2021/11/15 07:49:33;;;;;;;27.20;18.80;;;9.40;99.90;;;;;;5155266;27;36825;-78
2021/11/15 07:52:01;;;;;;;29.97;18.60;;;9.40;99.90;;;;;;5155552;27;38149;-79
2021/11/15 07:54:27;;;;;;;25.20;18.53;;;9.40;99.90;;;;;;5141605;27;40912;-77
2021/11/15 07:56:53;;;;;;;25.63;17.50;;;9.40;99.90;;;;;;5137380;27;37807;-78
2021/11/15 07:59:19;;;;;;;25.67;17.83;;;9.40;99.90;;;;;;5139525;27;37228;-77
2021/11/15 08:01:46;;;;;;;25.63;17.83;;;9.40;99.90;;;;;;5160052;27;38498;-79
2021/11/15 08:04:12;;;;;;;26.93;18.60;;;9.50;99.90;;;;;;5165505;27;38838;-79
2021/11/15 08:06:38;;;;;;;27.57;18.40;;;9.50;99.90;;;;;;5159988;27;38302;-77
2021/11/15 08:09:05;;;;;;;24.63;17.93;;;9.40;99.90;;;;;;5139353;27;36992;-78
2021/11/15 08:11:34;;;;;;;30.13;19.60;;;9.50;99.90;;;;;;5163227;27;37242;-77
2021/11/15 08:14:01;;;;;;;27.53;19.70;;;9.40;99.90;;;;;;5138500;27;39173;-77
2021/11/15 08:16:28;;;;;;;24.67;18.13;;;9.50;99.90;;;;;;5132711;27;47463;-78
2021/11/15 08:18:54;;;;;;;28.33;18.97;;;9.40;99.90;;;;;;5138944;27;36986;-78
2021/11/15 08:21:22;;;;;;;29.67;19.10;;;9.40;99.90;;;;;;5130218;27;37707;-77
2021/11/15 08:23:50;;;;;;;28.33;17.47;;;9.40;99.90;;;;;;5161313;27;38872;-77
2021/11/15 08:26:45;;;;;;;25.80;18.03;;;9.40;99.90;;;;;;5159957;27;38290;-77
2021/11/15 08:29:13;;;;;;;31.73;17.37;;;9.40;99.90;;;;;;5142119;27;40019;-76
2021/11/15 08:31:42;;;;;;;25.63;17.90;;;9.40;99.90;;;;;;5156803;27;37371;-78
2021/11/15 08:34:10;;;;;;;28.20;19.20;;;9.40;99.90;;;;;;5159081;27;39626;-77
2021/11/15 08:36:39;;;;;;;32.00;19.13;;;9.40;99.90;;;;;;5156138;27;40400;-76
2021/11/15 08:39:09;;;;;;;23.57;17.33;;;9.40;99.90;;;;;;5155664;27;37941;-77
2021/11/15 08:41:40;;;;;;;25.20;18.67;;;9.30;99.90;;;;;;5137104;27;36724;-77
2021/11/15 08:44:10;;;;;;;25.43;18.07;;;9.30;99.90;;;;;;5139635;27;39220;-77
2021/11/15 08:46:36;;;;;;;28.07;19.17;;;9.30;99.90;;;;;;5156312;27;38115;-79
2021/11/15 08:49:06;;;;;;;28.33;19.13;;;9.30;99.90;;;;;;5118821;27;38766;-77
2021/11/15 08:51:33;;;;;;;26.10;17.90;;;9.30;99.90;;;;;;5142602;27;37071;-77
2021/11/15 08:53:59;;;;;;;28.10;18.53;;;9.30;99.90;;;;;;5161678;27;39317;-78
2021/11/15 08:56:26;;;;;;;27.03;18.57;;;9.40;99.90;;;;;;5161496;27;39051;-77
2021/11/15 08:58:52;;;;;;;29.43;21.00;;;9.40;99.90;;;;;;5143834;27;39430;-79
2021/11/15 09:01:19;;;;;;;28.23;19.93;;;9.40;99.90;;;;;;5153199;27;37091;-79
2021/11/15 09:03:47;;;;;;;32.47;21.00;;;9.40;99.90;;;;;;5158761;27;38908;-79
2021/11/15 09:06:14;;;;;;;30.17;19.90;;;9.40;99.90;;;;;;5145287;27;39028;-79
2021/11/15 09:08:42;;;;;;;29.87;21.23;;;9.40;99.90;;;;;;5153466;27;38201;-76
2021/11/15 09:11:09;;;;;;;29.93;20.87;;;9.30;99.90;;;;;;5151238;27;38438;-77
2021/11/15 09:13:37;;;;;;;31.03;20.53;;;9.30;99.90;;;;;;5153229;27;40110;-77
2021/11/15 09:16:05;;;;;;;32.10;21.07;;;9.30;99.90;;;;;;5131421;27;38759;-77
2021/11/15 09:18:32;;;;;;;29.37;20.93;;;9.40;99.90;;;;;;5136115;27;39053;-78
2021/11/15 09:20:59;;;;;;;32.80;20.87;;;9.40;99.90;;;;;;5137224;27;39031;-77
2021/11/15 09:23:26;;;;;;;30.60;21.33;;;9.40;99.90;;;;;;5163030;27;39279;-78
2021/11/15 09:25:52;;;;;;;32.30;19.87;;;9.40;99.90;;;;;;5154756;27;38500;-78
2021/11/15 09:28:18;;;;;;;34.43;21.60;;;9.50;99.90;;;;;;5154907;27;37886;-78
2021/11/15 09:30:46;;;;;;;27.60;19.50;;;9.40;99.90;;;;;;5156432;27;37108;-80
2021/11/15 09:33:13;;;;;;;30.20;19.40;;;9.40;99.90;;;;;;5135306;27;39842;-77
2021/11/15 09:35:44;;;;;;;27.00;19.60;;;9.30;99.90;;;;;;5153675;27;39170;-78
2021/11/15 09:38:10;;;;;;;30.83;20.47;;;9.30;99.90;;;;;;5154643;27;38404;-77
2021/11/15 09:40:36;;;;;;;27.93;20.40;;;9.30;99.90;;;;;;5132420;27;38260;-77
2021/11/15 09:43:02;;;;;;;31.43;21.30;;;9.30;99.90;;;;;;5155474;27;39742;-77
2021/11/15 09:45:29;;;;;;;28.33;19.60;;;9.30;99.90;;;;;;5142822;27;38797;-77
2021/11/15 09:47:57;;;;;;;29.57;19.93;;;9.30;99.90;;;;;;5135627;27;36972;-77
2021/11/15 09:50:24;;;;;;;25.53;18.43;;;9.30;99.90;;;;;;5156169;27;37519;-76
2021/11/15 09:52:51;;;;;;;26.07;18.00;;;9.30;99.90;;;;;;5139815;27;39492;-76
2021/11/15 09:55:17;;;;;;;29.40;19.77;;;9.30;99.90;;;;;;5128363;27;38877;-77
2021/11/15 09:57:45;;;;;;;26.47;18.70;;;9.30;99.90;;;;;;5158954;27;39152;-77
2021/11/15 10:00:16;;;;;;;27.27;19.03;;;9.30;99.90;;;;;;5136299;27;38227;-77
2021/11/15 10:02:42;;;;;;;30.57;19.60;;;9.20;99.90;;;;;;5133976;27;39774;-76
2021/11/15 10:05:10;;;;;;;31.63;18.90;;;9.20;99.90;;;;;;5155569;27;38246;-78
2021/11/15 10:07:46;;;;;;;29.40;19.30;;;9.30;99.90;;;;;;5150482;27;38988;-77
2021/11/15 10:10:27;;;;;;;27.20;19.17;;;9.20;99.90;;;;;;5153420;27;37600;-76
2021/11/15 10:13:19;;;;;;;28.63;18.80;;;9.20;99.90;;;;;;5161165;27;39119;-76
2021/11/15 10:15:45;;;;;;;31.87;20.07;;;9.20;99.90;;;;;;5127541;27;47343;-76
2021/11/15 10:18:13;;;;;;;28.13;18.87;;;9.20;99.90;;;;;;5133284;27;37322;-76
2021/11/15 10:20:50;;;;;;;33.40;20.87;;;9.20;99.90;;;;;;5139174;27;37456;-76
2021/11/15 10:23:25;;;;;;;29.00;18.93;;;9.20;99.90;;;;;;5139710;27;38796;-76
2021/11/15 10:25:52;;;;;;;31.47;20.27;;;9.20;99.90;;;;;;5145703;27;38269;-77
2021/11/15 10:28:22;;;;;;;32.73;21.50;;;9.30;99.90;;;;;;5155812;27;37887;-77
2021/11/15 10:30:48;;;;;;;33.23;21.23;;;9.20;99.90;;;;;;5137137;27;36495;-77
2021/11/15 10:33:18;;;;;;;29.97;20.37;;;9.20;99.90;;;;;;5155933;27;38650;-76
2021/11/15 10:35:48;;;;;;;34.37;21.87;;;9.20;99.90;;;;;;5138513;27;37333;-76
2021/11/15 10:38:15;;;;;;;32.13;21.10;;;9.20;99.90;;;;;;5163152;27;38308;-75
2021/11/15 10:40:42;;;;;;;33.80;21.60;;;9.20;99.90;;;;;;5142611;27;36498;-76
2021/11/15 10:43:09;;;;;;;29.23;20.13;;;9.20;99.90;;;;;;5140685;27;38105;-76
2021/11/15 10:45:38;;;;;;;29.57;20.30;;;9.20;99.90;;;;;;5135780;27;39094;-77
2021/11/15 10:48:11;;;;;;;31.10;18.87;;;9.20;99.90;;;;;;5136832;27;37314;-76
2021/11/15 10:50:47;;;;;;;30.93;19.30;;;9.20;99.90;;;;;;5137699;27;36923;-76
2021/11/15 10:53:27;;;;;;;34.87;20.60;;;9.20;99.90;;;;;;5134324;27;38507;-76
2021/11/15 10:56:11;;;;;;;30.43;19.47;;;9.20;99.90;;;;;;5156646;27;37852;-76
2021/11/15 10:58:45;;;;;;;31.53;20.90;;;9.30;99.90;;;;;;5136928;27;47181;-75
2021/11/15 11:01:12;;;;;;;32.20;20.90;;;9.30;99.90;;;;;;5134954;27;38120;-78
2021/11/15 11:03:38;;;;;;;31.63;20.13;;;9.20;99.90;;;;;;5153661;27;39259;-77
2021/11/15 11:06:08;;;;;;;33.50;20.43;;;9.20;99.90;;;;;;5153607;27;38197;-78
2021/11/15 11:08:46;;;;;;;30.93;20.63;;;9.20;99.90;;;;;;5139006;27;37177;-78
2021/11/15 11:11:25;;;;;;;29.70;19.23;;;9.20;99.90;;;;;;5159345;27;38559;-77
2021/11/15 11:14:04;;;;;;;32.90;20.80;;;9.20;99.90;;;;;;5159746;27;38522;-77
2021/11/15 11:16:43;;;;;;;28.97;20.03;;;9.30;99.90;;;;;;5139451;27;47274;-78
2021/11/15 11:19:43;;;;;;;30.43;19.87;;;9.30;99.90;;;;;;5154887;27;37815;-77
2021/11/15 11:27:30;;;;;;;29.85;19.98;;;9.20;99.90;;;;;;5160228;27;49204;-77
2021/11/15 11:29:57;;;;;;;32.50;21.20;;;9.20;99.90;;;;;;5159659;27;37992;-73
2021/11/15 11:32:26;;;;;;;30.63;20.30;;;9.20;99.90;;;;;;5148937;27;37519;-73
2021/11/15 11:34:56;;;;;;;31.80;20.83;;;9.10;99.90;;;;;;5134841;27;38721;-73
2021/11/15 11:37:25;;;;;;;29.40;19.73;;;9.10;99.90;;;;;;5137865;27;37156;-73
2021/11/15 11:39:52;;;;;;;30.43;19.67;;;9.10;99.90;;;;;;5144183;27;37320;-73
2021/11/15 11:42:19;;;;;;;29.47;19.97;;;9.00;99.90;;;;;;5129040;27;36174;-74
2021/11/15 11:44:46;;;;;;;35.67;22.67;;;9.10;99.90;;;;;;5160182;27;38690;-73
2021/11/15 11:47:16;;;;;;;31.60;21.20;;;9.10;99.90;;;;;;5138159;27;38736;-73
2021/11/15 11:49:43;;;;;;;33.87;21.07;;;9.10;99.90;;;;;;5131618;27;38297;-73
2021/11/15 11:52:12;;;;;;;32.37;21.37;;;9.10;99.90;;;;;;5151960;27;37307;-73
2021/11/15 11:54:47;;;;;;;30.63;20.40;;;9.20;99.90;;;;;;5154498;27;38808;-73
2021/11/15 11:57:31;;;;;;;32.57;22.43;;;9.20;99.90;;;;;;5151894;27;38556;-73
2021/11/15 11:59:59;;;;;;;33.10;21.47;;;9.10;99.90;;;;;;5135764;27;37043;-73
2021/11/15 12:02:29;;;;;;;33.97;20.67;;;9.20;99.90;;;;;;5150303;27;37107;-73
2021/11/15 12:05:00;;;;;;;30.57;20.47;;;9.20;99.90;;;;;;5132176;27;37999;-73
2021/11/15 12:07:34;;;;;;;31.17;21.00;;;9.20;99.90;;;;;;5148657;27;38556;-73
2021/11/15 12:10:03;;;;;;;32.33;20.00;;;9.10;99.90;;;;;;5148738;27;39544;-73
2021/11/15 12:12:49;;;;;;;34.33;20.80;;;9.20;99.90;;;;;;5151956;27;48261;-73
2021/11/15 12:15:36;;;;;;;33.63;20.70;;;9.20;99.90;;;;;;5146468;27;38750;-73
2021/11/15 12:18:37;;;;;;;31.07;20.80;;;9.20;99.90;;;;;;5151001;27;38761;-73
2021/11/15 12:21:10;;;;;;;32.00;20.17;;;9.20;99.90;;;;;;5090316;27;38321;-73
2021/11/15 12:24:05;;;;;;;29.43;20.00;;;9.20;99.90;;;;;;5151268;27;37360;-73
2021/11/15 12:26:44;;;;;;;34.13;20.60;;;9.20;99.90;;;;;;5119274;27;47405;-73
2021/11/15 12:29:26;;;;;;;34.57;21.63;;;9.20;99.90;;;;;;5137917;27;37634;-73
2021/11/15 12:31:58;;;;;;;33.40;19.63;;;9.10;99.90;;;;;;5143911;27;37229;-73
2021/11/15 12:34:27;;;;;;;30.97;19.90;;;9.10;99.90;;;;;;5146368;27;37556;-74
2021/11/15 12:36:56;;;;;;;33.53;19.73;;;9.10;99.90;;;;;;5152602;27;38912;-74
2021/11/15 12:39:37;;;;;;;30.10;18.33;;;9.10;99.90;;;;;;5137318;27;37447;-73
2021/11/15 12:42:03;;;;;;;32.87;18.63;;;9.00;99.90;;;;;;5128790;27;38190;-75
2021/11/15 12:44:37;;;;;;;31.73;18.60;;;9.00;99.90;;;;;;5146070;27;38380;-74